Time;durP1;ratioP1;P1;durP2;ratioP2;P2;SDS_P1;SDS_P2;PMS_P1;PMS_P2;Temp;Humidity;BMP_temperature;BMP_pressure;BME280_temperature;BME280_humidity;BME280_pressure;Samples;Min_cycle;Max_cycle;Signal;HPM_P1;HPM_P2
2022/12/14 00:00:32;;;;;;;14.40;10.07;;;;;;;;;;5031191;28;20205;-69
2022/12/14 00:02:59;;;;;;;16.50;10.95;;;;;;;;;;5041908;28;20201;-69
2022/12/14 00:05:27;;;;;;;13.82;10.57;;;;;;;;;;5042741;28;20511;-71
2022/12/14 00:07:55;;;;;;;11.98;10.07;;;;;;;;;;5042038;28;20219;-69
2022/12/14 00:10:21;;;;;;;16.30;10.63;;;;;;;;;;5042024;28;20198;-69
2022/12/14 00:12:47;;;;;;;13.32;9.55;;;;;;;;;;5042473;28;20255;-69
2022/12/14 00:15:14;;;;;;;14.63;10.05;;;;;;;;;;5042177;28;20452;-69
2022/12/14 00:17:40;;;;;;;14.77;11.02;;;;;;;;;;5042344;27;20221;-69
2022/12/14 00:20:07;;;;;;;15.68;10.25;;;;;;;;;;5042111;28;20501;-69
2022/12/14 00:22:33;;;;;;;14.93;10.43;;;;;;;;;;5042130;28;20212;-69
2022/12/14 00:25:01;;;;;;;12.95;9.73;;;;;;;;;;5042593;28;20198;-69
2022/12/14 00:27:27;;;;;;;16.90;10.55;;;;;;;;;;5042239;28;20241;-69
2022/12/14 00:29:54;;;;;;;12.02;9.73;;;;;;;;;;5042185;27;20390;-69
2022/12/14 00:32:21;;;;;;;14.38;10.27;;;;;;;;;;5042235;28;20197;-69
2022/12/14 00:34:47;;;;;;;13.23;10.10;;;;;;;;;;5042411;28;20349;-69
2022/12/14 00:37:13;;;;;;;13.18;9.95;;;;;;;;;;5041742;28;20225;-69
2022/12/14 00:39:39;;;;;;;13.48;9.95;;;;;;;;;;5041675;28;20225;-69
2022/12/14 00:42:07;;;;;;;12.25;9.68;;;;;;;;;;5041860;28;20269;-69
2022/12/14 00:44:34;;;;;;;13.57;9.75;;;;;;;;;;5041986;28;20222;-69
2022/12/14 00:47:00;;;;;;;14.20;9.93;;;;;;;;;;5041981;28;20204;-69
2022/12/14 00:49:26;;;;;;;14.50;10.40;;;;;;;;;;5041593;28;20237;-69
2022/12/14 00:51:53;;;;;;;14.38;10.18;;;;;;;;;;5041784;28;20204;-69
2022/12/14 00:54:19;;;;;;;14.88;10.48;;;;;;;;;;5041773;28;20466;-69
2022/12/14 00:56:45;;;;;;;17.63;10.43;;;;;;;;;;5041500;28;20228;-69
2022/12/14 00:59:13;;;;;;;15.93;10.88;;;;;;;;;;5041139;28;20198;-69
2022/12/14 01:01:39;;;;;;;12.98;10.95;;;;;;;;;;5041711;28;20204;-69
2022/12/14 01:04:18;;;;;;;13.60;10.23;;;;;;;;;;5040444;28;20197;-69
2022/12/14 01:06:45;;;;;;;15.77;11.13;;;;;;;;;;5041876;28;20432;-69
2022/12/14 01:09:11;;;;;;;15.57;11.15;;;;;;;;;;5041568;28;20271;-69
2022/12/14 01:11:37;;;;;;;14.68;10.25;;;;;;;;;;5041718;28;20198;-69
2022/12/14 01:14:03;;;;;;;13.82;10.23;;;;;;;;;;5041405;28;20197;-69
2022/12/14 01:16:31;;;;;;;12.70;9.85;;;;;;;;;;5041227;28;20405;-69
2022/12/14 01:18:58;;;;;;;16.15;11.13;;;;;;;;;;5040928;28;20198;-69
2022/12/14 01:21:24;;;;;;;13.27;10.10;;;;;;;;;;5041154;28;20206;-69
2022/12/14 01:23:52;;;;;;;16.30;10.73;;;;;;;;;;5041358;28;20386;-69
2022/12/14 01:26:18;;;;;;;13.77;9.75;;;;;;;;;;5041246;28;20209;-69
2022/12/14 01:28:45;;;;;;;14.35;10.88;;;;;;;;;;5040889;28;20218;-69
2022/12/14 01:31:13;;;;;;;15.27;11.80;;;;;;;;;;5041049;28;20225;-69
2022/12/14 01:33:40;;;;;;;13.75;11.02;;;;;;;;;;5041182;28;20208;-69
2022/12/14 01:36:07;;;;;;;17.10;11.23;;;;;;;;;;5041239;28;20198;-69
2022/12/14 01:38:33;;;;;;;15.63;11.07;;;;;;;;;;5040699;28;20226;-69
2022/12/14 01:41:00;;;;;;;16.08;11.18;;;;;;;;;;5040928;28;20204;-69
2022/12/14 01:43:44;;;;;;;16.05;11.20;;;;;;;;;;5040832;28;20232;-69
2022/12/14 01:46:11;;;;;;;13.90;10.82;;;;;;;;;;5041040;28;20551;-69
2022/12/14 01:48:37;;;;;;;18.83;11.23;;;;;;;;;;5040835;28;20194;-69
2022/12/14 01:51:05;;;;;;;16.77;11.57;;;;;;;;;;5040742;28;20204;-69
2022/12/14 01:53:31;;;;;;;18.25;11.43;;;;;;;;;;5040726;28;20204;-69
2022/12/14 01:55:58;;;;;;;13.88;10.30;;;;;;;;;;5040723;28;20197;-69
2022/12/14 01:58:27;;;;;;;18.02;11.75;;;;;;;;;;5040295;28;20217;-69
2022/12/14 02:03:57;;;;;;;16.08;11.57;;;;;;;;;;5040481;28;20377;-69
2022/12/14 02:06:26;;;;;;;16.27;12.10;;;;;;;;;;5040658;28;20210;-69
2022/12/14 02:08:53;;;;;;;19.42;13.25;;;;;;;;;;5040483;28;20505;-69
2022/12/14 02:11:24;;;;;;;16.88;12.40;;;;;;;;;;5040420;28;20309;-69
2022/12/14 02:13:50;;;;;;;16.55;11.18;;;;;;;;;;5040626;28;20193;-69
2022/12/14 02:16:16;;;;;;;15.10;12.05;;;;;;;;;;5040407;28;20221;-69
2022/12/14 02:18:42;;;;;;;15.70;12.15;;;;;;;;;;5039975;28;20228;-69
2022/12/14 02:21:16;;;;;;;16.08;11.95;;;;;;;;;;5040540;28;20460;-69
2022/12/14 02:24:04;;;;;;;20.60;12.98;;;;;;;;;;5040228;28;20204;-69
2022/12/14 02:26:47;;;;;;;17.50;12.02;;;;;;;;;;5040477;28;20201;-69
2022/12/14 02:29:31;;;;;;;15.73;11.27;;;;;;;;;;5040134;28;20213;-69
2022/12/14 02:32:03;;;;;;;17.23;11.82;;;;;;;;;;5040441;28;20490;-69
2022/12/14 02:34:35;;;;;;;17.10;11.52;;;;;;;;;;5040285;28;20204;-69
2022/12/14 02:37:04;;;;;;;19.55;12.60;;;;;;;;;;5040211;28;20213;-69
2022/12/14 02:39:34;;;;;;;19.08;12.77;;;;;;;;;;5040053;28;20198;-69
2022/12/14 02:42:05;;;;;;;16.33;12.38;;;;;;;;;;5040426;28;20198;-69
2022/12/14 02:44:33;;;;;;;15.05;12.10;;;;;;;;;;5040383;28;20204;-69
2022/12/14 02:47:04;;;;;;;19.27;13.45;;;;;;;;;;5040630;28;20193;-69
2022/12/14 02:49:40;;;;;;;15.93;11.73;;;;;;;;;;5040428;28;20543;-69
2022/12/14 02:52:09;;;;;;;16.58;12.68;;;;;;;;;;5040375;28;20204;-69
2022/12/14 02:54:38;;;;;;;17.45;12.93;;;;;;;;;;5040252;28;20264;-69
2022/12/14 02:57:09;;;;;;;18.73;12.30;;;;;;;;;;5039687;28;20549;-69
2022/12/14 02:59:35;;;;;;;20.40;13.38;;;;;;;;;;5039443;28;20204;-69
2022/12/14 03:02:03;;;;;;;16.23;12.55;;;;;;;;;;5039900;28;20284;-69
2022/12/14 03:04:30;;;;;;;19.65;13.43;;;;;;;;;;5039531;28;20198;-69
2022/12/14 03:07:01;;;;;;;19.85;13.25;;;;;;;;;;5039700;28;20379;-69
2022/12/14 03:09:28;;;;;;;19.50;12.68;;;;;;;;;;5039591;28;20197;-69
2022/12/14 03:11:57;;;;;;;19.50;13.25;;;;;;;;;;5039367;28;20212;-69
2022/12/14 03:14:27;;;;;;;20.20;12.90;;;;;;;;;;5039772;28;20400;-69
2022/12/14 03:16:53;;;;;;;18.88;13.52;;;;;;;;;;5039804;28;20206;-69
2022/12/14 03:19:23;;;;;;;17.38;12.85;;;;;;;;;;5039305;28;20493;-69
2022/12/14 03:21:51;;;;;;;17.15;13.05;;;;;;;;;;5039434;28;20235;-69
2022/12/14 03:24:21;;;;;;;18.23;13.63;;;;;;;;;;5039350;28;20197;-69
2022/12/14 03:26:49;;;;;;;19.50;13.73;;;;;;;;;;5039070;28;20213;-69
2022/12/14 03:29:20;;;;;;;21.08;13.90;;;;;;;;;;5039110;28;20224;-69
2022/12/14 03:31:48;;;;;;;20.00;14.60;;;;;;;;;;5039569;28;20206;-69
2022/12/14 03:34:16;;;;;;;22.20;14.77;;;;;;;;;;5039818;28;20225;-69
2022/12/14 03:36:46;;;;;;;21.55;13.88;;;;;;;;;;5039457;28;20201;-69
2022/12/14 03:39:17;;;;;;;21.55;15.45;;;;;;;;;;5039023;28;20226;-69
2022/12/14 03:41:47;;;;;;;19.33;13.52;;;;;;;;;;5039141;28;20198;-69
2022/12/14 03:44:21;;;;;;;19.02;13.57;;;;;;;;;;5039270;28;20372;-69
2022/12/14 03:46:53;;;;;;;20.50;14.32;;;;;;;;;;5039044;28;20489;-69
2022/12/14 03:49:21;;;;;;;21.52;15.38;;;;;;;;;;5038801;28;20358;-69
2022/12/14 03:51:55;;;;;;;24.42;15.20;;;;;;;;;;5039046;28;20205;-69
2022/12/14 03:54:23;;;;;;;18.27;14.43;;;;;;;;;;5039189;28;20203;-70
2022/12/14 03:56:50;;;;;;;24.30;14.65;;;;;;;;;;5038925;28;20398;-69
2022/12/14 03:59:22;;;;;;;22.17;14.02;;;;;;;;;;5038811;28;20225;-69
2022/12/14 04:01:52;;;;;;;18.10;13.73;;;;;;;;;;5039236;28;20642;-69
2022/12/14 04:04:21;;;;;;;22.33;14.48;;;;;;;;;;5039137;28;20190;-69
2022/12/14 04:06:51;;;;;;;21.55;15.10;;;;;;;;;;5039253;28;20205;-69
2022/12/14 04:09:23;;;;;;;18.92;14.13;;;;;;;;;;5038734;28;20194;-69
2022/12/14 04:20:15;;;;;;;19.35;14.60;;;;;;;;;;5038788;28;20234;-69
2022/12/14 04:22:44;;;;;;;20.17;15.10;;;;;;;;;;5039071;28;20448;-69
2022/12/14 04:27:59;;;;;;;30.33;17.35;;;;;;;;;;5038648;28;20229;-69
2022/12/14 04:30:26;;;;;;;24.35;16.63;;;;;;;;;;5038761;28;20198;-69
2022/12/14 04:32:55;;;;;;;24.42;16.38;;;;;;;;;;5038460;28;20194;-69
2022/12/14 04:35:23;;;;;;;22.90;15.55;;;;;;;;;;5038795;28;20198;-69
2022/12/14 04:37:51;;;;;;;22.25;15.88;;;;;;;;;;5038572;28;20226;-69
2022/12/14 04:40:21;;;;;;;25.55;16.55;;;;;;;;;;5041270;28;20198;-69
2022/12/14 04:42:50;;;;;;;22.27;16.23;;;;;;;;;;5042022;28;20198;-69
2022/12/14 04:45:19;;;;;;;22.55;16.20;;;;;;;;;;5041913;28;20387;-69
2022/12/14 04:47:51;;;;;;;22.58;15.82;;;;;;;;;;5041471;28;20204;-69
2022/12/14 04:50:20;;;;;;;21.27;14.95;;;;;;;;;;5041498;28;20206;-69
2022/12/14 04:52:49;;;;;;;22.23;15.57;;;;;;;;;;5041793;28;20363;-69
2022/12/14 04:55:18;;;;;;;22.90;16.58;;;;;;;;;;5041954;28;20456;-69
2022/12/14 04:57:49;;;;;;;22.90;15.15;;;;;;;;;;5041529;28;20245;-69
2022/12/14 05:00:15;;;;;;;19.92;14.85;;;;;;;;;;5041580;28;20198;-69
2022/12/14 05:02:49;;;;;;;22.83;16.48;;;;;;;;;;5041940;28;20213;-67
2022/12/14 05:05:17;;;;;;;22.42;15.05;;;;;;;;;;5041959;28;20199;-67
2022/12/14 05:07:46;;;;;;;23.35;15.18;;;;;;;;;;5041616;28;20500;-67
2022/12/14 05:10:16;;;;;;;24.58;15.00;;;;;;;;;;5041431;28;20198;-67
2022/12/14 05:12:46;;;;;;;21.77;15.18;;;;;;;;;;5041346;27;20523;-67
2022/12/14 05:15:16;;;;;;;21.33;15.02;;;;;;;;;;5041784;28;20405;-68
2022/12/14 05:17:42;;;;;;;21.70;14.27;;;;;;;;;;5041392;28;20224;-68
2022/12/14 05:20:13;;;;;;;21.85;14.65;;;;;;;;;;5041175;28;20209;-68
2022/12/14 05:22:39;;;;;;;21.67;15.73;;;;;;;;;;5041501;28;20208;-68
2022/12/14 05:25:06;;;;;;;22.23;15.05;;;;;;;;;;5041115;28;20198;-68
2022/12/14 05:27:32;;;;;;;19.90;15.13;;;;;;;;;;5041381;28;20537;-68
2022/12/14 05:29:59;;;;;;;25.13;16.05;;;;;;;;;;5041126;28;20204;-68
2022/12/14 05:32:27;;;;;;;23.67;16.05;;;;;;;;;;5041237;28;20516;-68
2022/12/14 05:34:54;;;;;;;21.23;14.68;;;;;;;;;;5041170;28;20205;-68
2022/12/14 05:37:20;;;;;;;27.58;15.68;;;;;;;;;;5040873;28;20198;-68
2022/12/14 05:39:46;;;;;;;23.92;15.65;;;;;;;;;;5040620;28;20198;-68
2022/12/14 05:42:13;;;;;;;21.50;15.23;;;;;;;;;;5041294;28;20408;-68
2022/12/14 05:44:39;;;;;;;20.88;14.95;;;;;;;;;;5040970;28;20202;-68
2022/12/14 05:47:05;;;;;;;22.48;15.63;;;;;;;;;;5041082;28;20205;-68
2022/12/14 05:49:33;;;;;;;23.35;15.23;;;;;;;;;;5040652;28;20258;-68
2022/12/14 05:51:59;;;;;;;22.80;16.13;;;;;;;;;;5040217;28;20198;-68
2022/12/14 05:54:26;;;;;;;19.58;14.82;;;;;;;;;;5041355;28;20386;-68
2022/12/14 05:56:52;;;;;;;23.83;15.93;;;;;;;;;;5040798;28;20205;-68
2022/12/14 05:59:18;;;;;;;21.45;15.20;;;;;;;;;;5040318;28;20511;-68
2022/12/14 06:01:45;;;;;;;21.00;15.80;;;;;;;;;;5040306;28;20198;-68
2022/12/14 06:04:12;;;;;;;22.83;16.52;;;;;;;;;;5040584;28;20204;-68
2022/12/14 06:06:39;;;;;;;24.50;16.10;;;;;;;;;;5040273;28;20202;-68
2022/12/14 06:09:06;;;;;;;23.08;16.48;;;;;;;;;;5040164;28;20200;-68
2022/12/14 06:11:33;;;;;;;21.50;16.00;;;;;;;;;;5041047;28;20197;-69
2022/12/14 06:13:59;;;;;;;24.08;16.40;;;;;;;;;;5040258;28;20205;-69
2022/12/14 06:16:26;;;;;;;24.10;16.58;;;;;;;;;;5040454;28;20198;-69
2022/12/14 06:18:53;;;;;;;24.13;16.60;;;;;;;;;;5040069;28;20239;-69
2022/12/14 06:21:22;;;;;;;20.75;15.88;;;;;;;;;;5040206;28;20509;-69
2022/12/14 06:23:50;;;;;;;24.10;16.98;;;;;;;;;;5040102;28;20208;-69
2022/12/14 06:26:16;;;;;;;23.10;16.55;;;;;;;;;;5040391;28;20364;-69
2022/12/14 06:28:43;;;;;;;24.15;16.63;;;;;;;;;;5039877;28;20224;-69
2022/12/14 06:31:14;;;;;;;23.60;15.93;;;;;;;;;;5039819;28;20200;-69
2022/12/14 06:33:40;;;;;;;20.58;15.77;;;;;;;;;;5040014;28;20202;-69
2022/12/14 06:36:07;;;;;;;25.77;16.10;;;;;;;;;;5039722;28;20216;-69
2022/12/14 06:38:34;;;;;;;23.08;17.08;;;;;;;;;;5039819;27;20218;-69
2022/12/14 06:41:07;;;;;;;22.67;16.90;;;;;;;;;;5039736;28;20198;-69
2022/12/14 06:43:33;;;;;;;23.52;16.65;;;;;;;;;;5039769;28;20197;-69
2022/12/14 06:45:59;;;;;;;25.83;16.77;;;;;;;;;;5039817;28;20360;-69
2022/12/14 06:48:26;;;;;;;25.25;18.30;;;;;;;;;;5039220;28;20194;-70
2022/12/14 06:50:52;;;;;;;23.45;16.55;;;;;;;;;;5039863;28;20198;-70
2022/12/14 06:53:18;;;;;;;25.33;17.58;;;;;;;;;;5039465;28;20402;-70
2022/12/14 06:55:44;;;;;;;28.05;17.83;;;;;;;;;;5039425;28;20198;-70
2022/12/14 06:58:13;;;;;;;27.58;18.30;;;;;;;;;;5039509;28;20497;-60
2022/12/14 07:00:39;;;;;;;27.77;18.33;;;;;;;;;;5039454;28;20198;-59
2022/12/14 07:03:05;;;;;;;28.83;18.50;;;;;;;;;;5037931;28;20269;-60
2022/12/14 07:05:32;;;;;;;27.23;17.90;;;;;;;;;;5039427;28;20220;-60
2022/12/14 07:07:58;;;;;;;27.23;17.77;;;;;;;;;;5039339;28;20205;-60
2022/12/14 07:10:24;;;;;;;26.63;18.33;;;;;;;;;;5039131;28;20209;-60
2022/12/14 07:12:51;;;;;;;27.17;18.65;;;;;;;;;;5039086;28;20190;-60
2022/12/14 07:15:18;;;;;;;28.27;18.10;;;;;;;;;;5039188;28;20220;-59
2022/12/14 07:17:45;;;;;;;26.17;18.45;;;;;;;;;;5038911;28;20422;-59
2022/12/14 07:20:11;;;;;;;25.50;17.90;;;;;;;;;;5038607;28;20221;-60
2022/12/14 07:22:38;;;;;;;28.40;18.98;;;;;;;;;;5039178;28;20201;-59
2022/12/14 07:25:04;;;;;;;28.77;20.20;;;;;;;;;;5039134;28;20202;-60
2022/12/14 07:27:30;;;;;;;24.33;17.65;;;;;;;;;;5038808;28;20218;-59
2022/12/14 07:29:57;;;;;;;26.67;18.95;;;;;;;;;;5038638;28;20368;-58
2022/12/14 07:32:24;;;;;;;27.77;18.98;;;;;;;;;;5039310;28;20198;-60
2022/12/14 07:34:50;;;;;;;25.00;18.17;;;;;;;;;;5038769;28;20204;-59
2022/12/14 07:37:17;;;;;;;25.27;18.13;;;;;;;;;;5038883;28;20510;-60
2022/12/14 07:39:43;;;;;;;27.08;18.60;;;;;;;;;;5038609;28;20239;-59
2022/12/14 07:42:09;;;;;;;26.48;17.70;;;;;;;;;;5038701;28;20201;-59
2022/12/14 07:44:36;;;;;;;23.58;17.55;;;;;;;;;;5038629;28;20229;-60
2022/12/14 07:47:02;;;;;;;25.92;18.00;;;;;;;;;;5038731;28;20205;-60
2022/12/14 07:49:30;;;;;;;27.52;17.90;;;;;;;;;;5038549;28;20265;-58
2022/12/14 07:51:56;;;;;;;28.52;18.70;;;;;;;;;;5038385;28;20204;-59
2022/12/14 07:54:23;;;;;;;27.55;18.52;;;;;;;;;;5038888;28;20205;-59
2022/12/14 07:56:50;;;;;;;26.38;18.80;;;;;;;;;;5038540;28;20204;-60
2022/12/14 07:59:17;;;;;;;25.63;18.58;;;;;;;;;;5038125;28;20240;-60
2022/12/14 08:01:44;;;;;;;30.65;18.83;;;;;;;;;;5038858;28;20212;-60
2022/12/14 08:04:11;;;;;;;24.48;17.50;;;;;;;;;;5038609;28;20235;-59
2022/12/14 08:06:40;;;;;;;25.73;18.48;;;;;;;;;;5038658;28;20268;-57
2022/12/14 08:09:07;;;;;;;26.10;19.02;;;;;;;;;;5038170;28;20202;-59
2022/12/14 08:11:33;;;;;;;28.30;18.80;;;;;;;;;;5038531;28;20508;-59
2022/12/14 08:14:00;;;;;;;27.75;17.67;;;;;;;;;;5039560;28;20273;-60
2022/12/14 08:16:27;;;;;;;30.13;18.15;;;;;;;;;;5041810;28;20205;-59
2022/12/14 08:18:54;;;;;;;26.83;18.67;;;;;;;;;;5041512;28;20214;-59
2022/12/14 08:21:21;;;;;;;31.33;19.20;;;;;;;;;;5041804;28;20227;-59
2022/12/14 08:23:49;;;;;;;29.10;19.25;;;;;;;;;;5041945;28;20532;-60
2022/12/14 08:26:16;;;;;;;28.25;18.52;;;;;;;;;;5041660;28;20198;-60
2022/12/14 08:28:42;;;;;;;27.13;18.98;;;;;;;;;;5041532;28;20213;-59
2022/12/14 08:31:10;;;;;;;33.80;20.25;;;;;;;;;;5041915;28;20502;-59
2022/12/14 08:33:37;;;;;;;29.30;19.70;;;;;;;;;;5041604;28;20384;-60
2022/12/14 08:36:07;;;;;;;29.70;18.80;;;;;;;;;;5041751;28;20205;-58
2022/12/14 08:38:33;;;;;;;28.35;19.42;;;;;;;;;;5041202;28;20213;-59
2022/12/14 08:41:03;;;;;;;29.52;18.83;;;;;;;;;;5041367;28;20212;-60
2022/12/14 08:43:29;;;;;;;26.17;17.70;;;;;;;;;;5041359;28;20208;-59
2022/12/14 08:45:55;;;;;;;30.23;18.80;;;;;;;;;;5041547;28;20277;-60
2022/12/14 08:48:22;;;;;;;25.80;18.85;;;;;;;;;;5041339;28;20501;-60
2022/12/14 08:50:48;;;;;;;29.20;20.10;;;;;;;;;;5041381;27;20197;-59
2022/12/14 08:53:14;;;;;;;29.25;18.98;;;;;;;;;;5041133;28;20205;-60
2022/12/14 08:55:41;;;;;;;30.23;20.00;;;;;;;;;;5041323;28;20214;-59
2022/12/14 08:58:09;;;;;;;30.92;19.13;;;;;;;;;;5037515;28;20198;-59
2022/12/14 09:00:37;;;;;;;33.97;19.27;;;;;;;;;;5026626;28;20231;-59
2022/12/14 09:03:04;;;;;;;26.85;18.60;;;;;;;;;;5030547;28;20268;-58
2022/12/14 09:05:30;;;;;;;28.27;19.45;;;;;;;;;;5031301;28;20194;-57
2022/12/14 09:07:56;;;;;;;28.75;18.63;;;;;;;;;;5034807;28;20210;-58
2022/12/14 09:10:23;;;;;;;30.45;19.58;;;;;;;;;;5033775;28;20206;-58
2022/12/14 09:12:49;;;;;;;30.15;19.55;;;;;;;;;;5036462;28;20210;-57
2022/12/14 09:18:20;;;;;;;29.80;19.33;;;;;;;;;;5024577;28;20199;-57
2022/12/14 09:20:47;;;;;;;26.27;18.98;;;;;;;;;;5031889;28;20217;-58
2022/12/14 09:23:13;;;;;;;30.17;19.95;;;;;;;;;;5037597;28;20194;-58
2022/12/14 09:25:40;;;;;;;28.65;20.48;;;;;;;;;;5037434;28;20269;-57
2022/12/14 09:28:07;;;;;;;31.25;20.80;;;;;;;;;;5038036;28;20236;-58
2022/12/14 09:30:33;;;;;;;30.10;20.65;;;;;;;;;;5038288;28;20525;-58
2022/12/14 09:32:59;;;;;;;29.38;20.13;;;;;;;;;;5037609;28;20412;-58
2022/12/14 09:35:27;;;;;;;28.83;20.25;;;;;;;;;;5038015;28;20300;-59
2022/12/14 09:37:53;;;;;;;29.42;19.83;;;;;;;;;;5037831;28;20205;-56
2022/12/14 09:40:22;;;;;;;28.08;19.98;;;;;;;;;;5038130;28;20233;-56
2022/12/14 09:42:53;;;;;;;30.83;19.95;;;;;;;;;;5037988;28;20556;-57
2022/12/14 09:45:21;;;;;;;27.73;19.95;;;;;;;;;;5038198;28;20206;-57
2022/12/14 09:47:51;;;;;;;31.77;20.85;;;;;;;;;;5037675;28;20212;-56
2022/12/14 09:50:18;;;;;;;30.33;21.35;;;;;;;;;;5037889;28;20208;-58
2022/12/14 09:52:47;;;;;;;38.25;23.30;;;;;;;;;;5037689;28;20212;-57
2022/12/14 09:55:17;;;;;;;31.23;21.33;;;;;;;;;;5037840;28;20212;-58
2022/12/14 09:57:44;;;;;;;31.27;21.52;;;;;;;;;;5037648;28;20220;-57
2022/12/14 10:00:13;;;;;;;38.88;23.58;;;;;;;;;;5037545;28;20447;-56
2022/12/14 10:02:43;;;;;;;34.40;23.23;;;;;;;;;;5037208;28;20205;-58
2022/12/14 10:05:20;;;;;;;34.28;22.40;;;;;;;;;;5037774;28;20415;-58
2022/12/14 10:07:50;;;;;;;35.65;24.00;;;;;;;;;;5037240;28;20206;-58
2022/12/14 10:10:19;;;;;;;37.22;23.48;;;;;;;;;;5037262;28;20201;-58
2022/12/14 10:12:50;;;;;;;36.75;23.88;;;;;;;;;;5037292;28;20250;-58
2022/12/14 10:15:24;;;;;;;33.15;22.40;;;;;;;;;;5037391;28;20273;-58
2022/12/14 10:18:02;;;;;;;38.17;24.98;;;;;;;;;;5037063;28;20206;-57
2022/12/14 10:20:31;;;;;;;41.78;24.52;;;;;;;;;;5037310;27;20238;-58
2022/12/14 10:23:00;;;;;;;34.90;23.40;;;;;;;;;;5037202;28;20201;-59
2022/12/14 10:25:28;;;;;;;34.95;23.15;;;;;;;;;;5037204;28;20281;-58
2022/12/14 10:27:56;;;;;;;35.13;22.85;;;;;;;;;;5037056;28;20248;-57
2022/12/14 10:30:23;;;;;;;34.22;23.33;;;;;;;;;;5037116;28;20213;-59
2022/12/14 10:32:51;;;;;;;33.78;22.38;;;;;;;;;;5037270;28;20206;-59
2022/12/14 10:35:18;;;;;;;33.60;22.08;;;;;;;;;;5037121;28;20212;-59
2022/12/14 10:37:47;;;;;;;34.80;23.58;;;;;;;;;;5036907;28;20277;-58
2022/12/14 10:40:17;;;;;;;38.28;23.83;;;;;;;;;;5036552;28;20525;-59
2022/12/14 10:42:47;;;;;;;35.85;23.90;;;;;;;;;;5036939;28;20244;-59
2022/12/14 10:45:18;;;;;;;38.17;24.13;;;;;;;;;;5037070;28;20227;-58
2022/12/14 10:47:46;;;;;;;36.03;24.00;;;;;;;;;;5036906;28;20512;-59
2022/12/14 10:50:17;;;;;;;37.85;23.58;;;;;;;;;;5036636;28;20209;-58
2022/12/14 10:52:45;;;;;;;37.97;23.13;;;;;;;;;;5036744;28;20216;-59
2022/12/14 10:55:14;;;;;;;36.67;24.83;;;;;;;;;;5036750;28;20212;-59
2022/12/14 10:57:41;;;;;;;48.75;26.38;;;;;;;;;;5036686;28;20206;-58
2022/12/14 11:00:12;;;;;;;36.17;23.95;;;;;;;;;;5036331;28;20229;-59
2022/12/14 11:02:40;;;;;;;38.22;24.77;;;;;;;;;;5036614;28;20244;-59
2022/12/14 11:05:13;;;;;;;42.35;25.67;;;;;;;;;;5036391;28;20374;-59
2022/12/14 11:07:42;;;;;;;33.97;24.25;;;;;;;;;;5036853;28;20214;-59
2022/12/14 11:10:14;;;;;;;39.30;23.92;;;;;;;;;;5036958;28;20202;-59
2022/12/14 11:12:53;;;;;;;37.28;25.30;;;;;;;;;;5036964;28;20212;-59
2022/12/14 11:15:23;;;;;;;35.53;24.08;;;;;;;;;;5036984;28;20210;-59
2022/12/14 11:17:59;;;;;;;37.53;23.55;;;;;;;;;;5036515;28;20214;-59
2022/12/14 11:20:25;;;;;;;34.80;23.55;;;;;;;;;;5036913;28;20229;-59
2022/12/14 11:22:53;;;;;;;37.65;24.38;;;;;;;;;;5036676;28;20198;-59
2022/12/14 11:25:26;;;;;;;40.70;24.40;;;;;;;;;;5037023;28;20240;-59
2022/12/14 11:27:54;;;;;;;39.28;24.00;;;;;;;;;;5036758;28;20226;-58
2022/12/14 11:30:21;;;;;;;40.78;25.40;;;;;;;;;;5036188;28;20229;-59
2022/12/14 11:32:48;;;;;;;40.35;26.00;;;;;;;;;;5036569;28;20213;-58
2022/12/14 11:35:15;;;;;;;43.80;26.73;;;;;;;;;;5036613;28;20213;-58
2022/12/14 11:37:42;;;;;;;41.65;25.60;;;;;;;;;;5036688;28;20216;-59
2022/12/14 11:40:19;;;;;;;40.10;25.45;;;;;;;;;;5036483;28;20224;-59
2022/12/14 11:42:47;;;;;;;46.45;26.75;;;;;;;;;;5036259;28;20209;-59
2022/12/14 11:45:32;;;;;;;41.60;26.85;;;;;;;;;;5036586;28;20233;-59
2022/12/14 11:48:10;;;;;;;39.28;26.08;;;;;;;;;;5036314;28;20216;-58
2022/12/14 11:50:36;;;;;;;38.58;25.83;;;;;;;;;;5036268;28;20209;-57
2022/12/14 11:53:03;;;;;;;39.85;27.48;;;;;;;;;;5036253;28;20509;-58
2022/12/14 11:55:30;;;;;;;39.95;26.67;;;;;;;;;;5036290;28;20206;-59
2022/12/14 11:57:58;;;;;;;41.47;27.13;;;;;;;;;;5036224;28;20206;-59
2022/12/14 12:00:25;;;;;;;43.95;28.60;;;;;;;;;;5036040;28;20253;-58
2022/12/14 12:02:58;;;;;;;43.20;27.15;;;;;;;;;;5036187;28;20518;-59
2022/12/14 12:05:26;;;;;;;43.10;26.60;;;;;;;;;;5036195;28;20212;-58
2022/12/14 12:07:54;;;;;;;37.78;25.67;;;;;;;;;;5036056;28;20536;-58
2022/12/14 12:10:22;;;;;;;42.65;26.20;;;;;;;;;;5033435;28;20573;-58
2022/12/14 12:12:50;;;;;;;42.05;25.80;;;;;;;;;;5033274;28;20445;-58
2022/12/14 12:15:17;;;;;;;42.30;27.98;;;;;;;;;;5033278;28;20210;-59
2022/12/14 12:17:45;;;;;;;42.55;26.98;;;;;;;;;;5033332;28;20214;-59
2022/12/14 12:20:20;;;;;;;43.55;27.52;;;;;;;;;;5032573;28;20226;-59
2022/12/14 12:22:49;;;;;;;42.00;27.70;;;;;;;;;;5033003;28;20213;-57
2022/12/14 12:25:16;;;;;;;43.05;26.73;;;;;;;;;;5035935;28;20202;-57
2022/12/14 12:27:42;;;;;;;39.85;26.58;;;;;;;;;;5035631;28;20226;-58
2022/12/14 12:30:14;;;;;;;39.05;26.42;;;;;;;;;;5035482;28;20229;-59
2022/12/14 12:32:44;;;;;;;39.80;26.58;;;;;;;;;;5035380;28;20250;-58
2022/12/14 12:35:15;;;;;;;40.97;26.92;;;;;;;;;;5035683;28;20206;-59
2022/12/14 12:37:45;;;;;;;47.13;28.55;;;;;;;;;;5035862;28;20516;-59
2022/12/14 12:40:13;;;;;;;43.45;28.48;;;;;;;;;;5035392;28;20226;-57
2022/12/14 12:42:43;;;;;;;43.28;29.00;;;;;;;;;;5036146;28;20210;-58
2022/12/14 12:45:15;;;;;;;43.95;28.35;;;;;;;;;;5035535;28;20206;-58
2022/12/14 12:47:44;;;;;;;47.08;28.55;;;;;;;;;;5035486;28;20206;-58
2022/12/14 12:50:13;;;;;;;45.03;28.05;;;;;;;;;;5035544;28;20505;-58
2022/12/14 12:52:46;;;;;;;43.47;27.33;;;;;;;;;;5035604;28;20210;-58
2022/12/14 12:55:16;;;;;;;46.08;28.25;;;;;;;;;;5035526;28;20213;-60
2022/12/14 12:57:44;;;;;;;40.70;27.48;;;;;;;;;;5035314;28;20206;-59
2022/12/14 13:00:16;;;;;;;45.83;28.23;;;;;;;;;;5035204;28;20381;-56
2022/12/14 13:02:45;;;;;;;44.25;28.95;;;;;;;;;;5038826;28;20206;-60
2022/12/14 13:05:12;;;;;;;49.72;30.08;;;;;;;;;;5038932;28;20212;-60
2022/12/14 13:07:41;;;;;;;42.78;28.88;;;;;;;;;;5038687;28;20212;-58
2022/12/14 13:10:14;;;;;;;46.90;29.92;;;;;;;;;;5038599;28;20411;-60
2022/12/14 13:12:45;;;;;;;50.13;29.95;;;;;;;;;;5039032;28;20437;-59
2022/12/14 13:15:16;;;;;;;43.78;28.77;;;;;;;;;;5039086;28;20262;-58
2022/12/14 13:17:45;;;;;;;44.83;28.63;;;;;;;;;;5038614;28;20212;-59
2022/12/14 13:20:17;;;;;;;48.63;29.70;;;;;;;;;;5030572;28;20228;-60
2022/12/14 13:22:44;;;;;;;46.15;30.38;;;;;;;;;;5038424;28;20214;-60
2022/12/14 13:25:13;;;;;;;45.72;28.98;;;;;;;;;;5038665;28;20216;-59
2022/12/14 13:27:54;;;;;;;49.28;30.77;;;;;;;;;;5034765;28;20225;-59
2022/12/14 13:30:24;;;;;;;48.63;30.27;;;;;;;;;;5032772;28;20208;-60
2022/12/14 13:32:56;;;;;;;50.67;31.27;;;;;;;;;;5038428;28;20494;-60
2022/12/14 13:35:33;;;;;;;48.75;31.27;;;;;;;;;;5038268;28;20206;-59
2022/12/14 13:38:08;;;;;;;50.72;31.23;;;;;;;;;;5038160;28;20213;-59
2022/12/14 13:40:53;;;;;;;49.45;31.85;;;;;;;;;;5038203;28;20474;-59
2022/12/14 13:43:39;;;;;;;53.45;32.40;;;;;;;;;;5038354;28;20194;-59
2022/12/14 13:46:06;;;;;;;56.70;35.95;;;;;;;;;;5038371;28;20237;-59
2022/12/14 13:48:36;;;;;;;54.47;34.05;;;;;;;;;;5037989;28;20229;-58
2022/12/14 13:51:04;;;;;;;50.95;32.15;;;;;;;;;;5038086;28;20201;-59
2022/12/14 13:53:33;;;;;;;50.63;33.10;;;;;;;;;;5038071;28;20220;-59
2022/12/14 13:56:01;;;;;;;49.97;32.20;;;;;;;;;;5037923;28;20216;-59
2022/12/14 13:58:32;;;;;;;48.10;31.60;;;;;;;;;;5038210;28;20532;-59
2022/12/14 14:01:00;;;;;;;48.25;32.22;;;;;;;;;;5037859;28;20321;-59
2022/12/14 14:03:46;;;;;;;52.67;31.98;;;;;;;;;;5037971;28;20210;-59
2022/12/14 14:06:17;;;;;;;52.45;31.20;;;;;;;;;;5037960;28;20509;-59
2022/12/14 14:08:44;;;;;;;51.17;31.75;;;;;;;;;;5037541;28;20208;-60
2022/12/14 14:11:29;;;;;;;48.30;30.95;;;;;;;;;;5037570;28;20202;-59
2022/12/14 14:14:13;;;;;;;48.08;32.28;;;;;;;;;;5037600;28;20212;-59
2022/12/14 14:16:43;;;;;;;46.67;30.13;;;;;;;;;;5037481;28;20213;-59
2022/12/14 14:19:17;;;;;;;42.20;28.80;;;;;;;;;;5037482;28;20206;-57
2022/12/14 14:21:45;;;;;;;48.63;30.77;;;;;;;;;;5037595;28;20234;-58
2022/12/14 14:24:21;;;;;;;53.55;32.55;;;;;;;;;;5037858;28;20210;-58
2022/12/14 14:27:07;;;;;;;50.90;32.17;;;;;;;;;;5037575;28;20758;-57
2022/12/14 14:29:34;;;;;;;56.88;33.03;;;;;;;;;;5037370;28;20227;-58
2022/12/14 14:32:03;;;;;;;51.65;31.60;;;;;;;;;;5037870;28;20217;-58
2022/12/14 14:34:35;;;;;;;49.15;32.08;;;;;;;;;;5037898;28;20250;-58
2022/12/14 14:37:13;;;;;;;47.88;32.08;;;;;;;;;;5037588;28;20220;-57
2022/12/14 14:39:40;;;;;;;52.15;33.20;;;;;;;;;;5037378;28;20205;-59
2022/12/14 14:42:08;;;;;;;54.63;32.50;;;;;;;;;;5037049;28;20229;-57
2022/12/14 14:44:36;;;;;;;58.08;32.80;;;;;;;;;;5037326;28;20296;-58